sensor_id;sensor_type;location;lat;lon;timestamp;P1;durP1;ratioP1;P2;durP2;ratioP2
15198;SDS011;7700;48.654;9.070;2023-10-08T00:00:22;122.10;;;116.90;;
15198;SDS011;7700;48.654;9.070;2023-10-08T00:03:08;100.55;;;96.55;;
15198;SDS011;7700;48.654;9.070;2023-10-08T00:05:39;79.25;;;75.72;;
15198;SDS011;7700;48.654;9.070;2023-10-08T00:08:05;66.70;;;63.88;;
15198;SDS011;7700;48.654;9.070;2023-10-08T00:10:38;50.80;;;48.58;;
15198;SDS011;7700;48.654;9.070;2023-10-08T00:13:08;37.67;;;35.85;;
15198;SDS011;7700;48.654;9.070;2023-10-08T00:15:37;53.28;;;50.80;;
15198;SDS011;7700;48.654;9.070;2023-10-08T00:18:15;46.13;;;43.75;;
15198;SDS011;7700;48.654;9.070;2023-10-08T00:20:41;45.95;;;43.88;;
15198;SDS011;7700;48.654;9.070;2023-10-08T00:23:21;62.03;;;59.38;;
15198;SDS011;7700;48.654;9.070;2023-10-08T00:25:47;77.10;;;73.93;;
15198;SDS011;7700;48.654;9.070;2023-10-08T00:28:15;88.32;;;84.75;;
15198;SDS011;7700;48.654;9.070;2023-10-08T00:30:42;106.80;;;102.40;;
15198;SDS011;7700;48.654;9.070;2023-10-08T00:33:09;97.38;;;93.45;;
15198;SDS011;7700;48.654;9.070;2023-10-08T00:35:40;82.10;;;78.72;;
15198;SDS011;7700;48.654;9.070;2023-10-08T00:38:07;52.47;;;50.20;;
15198;SDS011;7700;48.654;9.070;2023-10-08T00:40:40;57.25;;;54.72;;
15198;SDS011;7700;48.654;9.070;2023-10-08T00:43:09;66.90;;;64.22;;
15198;SDS011;7700;48.654;9.070;2023-10-08T00:45:38;89.68;;;85.97;;
15198;SDS011;7700;48.654;9.070;2023-10-08T00:48:10;75.82;;;72.82;;
15198;SDS011;7700;48.654;9.070;2023-10-08T00:50:41;87.55;;;84.25;;
15198;SDS011;7700;48.654;9.070;2023-10-08T00:53:08;115.60;;;111.18;;
15198;SDS011;7700;48.654;9.070;2023-10-08T00:55:47;119.68;;;114.72;;
15198;SDS011;7700;48.654;9.070;2023-10-08T00:58:18;120.07;;;115.38;;
15198;SDS011;7700;48.654;9.070;2023-10-08T01:00:50;133.23;;;128.38;;
15198;SDS011;7700;48.654;9.070;2023-10-08T01:03:17;131.05;;;125.95;;
15198;SDS011;7700;48.654;9.070;2023-10-08T01:05:44;145.80;;;140.50;;
15198;SDS011;7700;48.654;9.070;2023-10-08T01:08:14;169.02;;;162.63;;
15198;SDS011;7700;48.654;9.070;2023-10-08T01:10:47;169.10;;;162.65;;
15198;SDS011;7700;48.654;9.070;2023-10-08T01:13:22;164.45;;;157.90;;
15198;SDS011;7700;48.654;9.070;2023-10-08T01:15:51;169.85;;;163.35;;
15198;SDS011;7700;48.654;9.070;2023-10-08T01:18:17;110.28;;;105.97;;
15198;SDS011;7700;48.654;9.070;2023-10-08T01:20:53;96.90;;;93.00;;
15198;SDS011;7700;48.654;9.070;2023-10-08T01:23:20;58.53;;;55.75;;
15198;SDS011;7700;48.654;9.070;2023-10-08T01:25:48;54.78;;;52.53;;
15198;SDS011;7700;48.654;9.070;2023-10-08T01:28:35;54.90;;;52.33;;
15198;SDS011;7700;48.654;9.070;2023-10-08T01:31:00;46.40;;;44.33;;
15198;SDS011;7700;48.654;9.070;2023-10-08T01:33:29;52.42;;;50.13;;
15198;SDS011;7700;48.654;9.070;2023-10-08T01:35:55;58.67;;;56.00;;
15198;SDS011;7700;48.654;9.070;2023-10-08T01:38:28;62.10;;;59.47;;
15198;SDS011;7700;48.654;9.070;2023-10-08T01:40:54;76.10;;;73.05;;
15198;SDS011;7700;48.654;9.070;2023-10-08T01:43:21;78.03;;;74.72;;
15198;SDS011;7700;48.654;9.070;2023-10-08T01:45:48;81.07;;;77.80;;
15198;SDS011;7700;48.654;9.070;2023-10-08T01:48:16;65.38;;;62.75;;
15198;SDS011;7700;48.654;9.070;2023-10-08T01:50:55;40.45;;;38.63;;
15198;SDS011;7700;48.654;9.070;2023-10-08T01:53:24;32.97;;;31.58;;
15198;SDS011;7700;48.654;9.070;2023-10-08T01:55:51;33.53;;;32.05;;
15198;SDS011;7700;48.654;9.070;2023-10-08T01:58:19;42.13;;;40.30;;
15198;SDS011;7700;48.654;9.070;2023-10-08T02:00:45;33.45;;;31.92;;
15198;SDS011;7700;48.654;9.070;2023-10-08T02:03:15;34.92;;;33.03;;
15198;SDS011;7700;48.654;9.070;2023-10-08T02:05:43;25.40;;;24.17;;
15198;SDS011;7700;48.654;9.070;2023-10-08T02:08:10;22.90;;;21.70;;
15198;SDS011;7700;48.654;9.070;2023-10-08T02:10:37;24.27;;;22.67;;
15198;SDS011;7700;48.654;9.070;2023-10-08T02:13:03;22.45;;;21.27;;
15198;SDS011;7700;48.654;9.070;2023-10-08T02:15:30;23.75;;;22.48;;
15198;SDS011;7700;48.654;9.070;2023-10-08T02:17:56;23.38;;;22.13;;
15198;SDS011;7700;48.654;9.070;2023-10-08T02:20:23;25.63;;;24.27;;
15198;SDS011;7700;48.654;9.070;2023-10-08T02:25:53;13.32;;;12.23;;
15198;SDS011;7700;48.654;9.070;2023-10-08T02:28:19;19.90;;;18.88;;
15198;SDS011;7700;48.654;9.070;2023-10-08T02:30:46;10.38;;;9.25;;
15198;SDS011;7700;48.654;9.070;2023-10-08T02:33:12;15.65;;;14.85;;
15198;SDS011;7700;48.654;9.070;2023-10-08T02:35:44;18.77;;;17.67;;
15198;SDS011;7700;48.654;9.070;2023-10-08T02:38:11;15.57;;;14.68;;
15198;SDS011;7700;48.654;9.070;2023-10-08T02:40:46;24.45;;;23.13;;
15198;SDS011;7700;48.654;9.070;2023-10-08T02:43:13;13.50;;;12.55;;
15198;SDS011;7700;48.654;9.070;2023-10-08T02:45:40;17.83;;;16.80;;
15198;SDS011;7700;48.654;9.070;2023-10-08T02:48:06;15.50;;;14.35;;
15198;SDS011;7700;48.654;9.070;2023-10-08T02:50:40;14.80;;;13.55;;
15198;SDS011;7700;48.654;9.070;2023-10-08T02:53:06;16.02;;;14.98;;
15198;SDS011;7700;48.654;9.070;2023-10-08T02:55:36;20.88;;;19.88;;
15198;SDS011;7700;48.654;9.070;2023-10-08T02:58:07;13.93;;;13.02;;
15198;SDS011;7700;48.654;9.070;2023-10-08T03:00:38;7.55;;;6.68;;
15198;SDS011;7700;48.654;9.070;2023-10-08T03:03:05;16.20;;;15.32;;
15198;SDS011;7700;48.654;9.070;2023-10-08T03:05:41;8.40;;;7.70;;
15198;SDS011;7700;48.654;9.070;2023-10-08T03:08:08;6.68;;;6.03;;
15198;SDS011;7700;48.654;9.070;2023-10-08T03:10:37;8.30;;;7.60;;
15198;SDS011;7700;48.654;9.070;2023-10-08T03:13:03;11.70;;;10.80;;
15198;SDS011;7700;48.654;9.070;2023-10-08T03:15:34;6.30;;;5.50;;
15198;SDS011;7700;48.654;9.070;2023-10-08T03:18:11;6.50;;;4.38;;
15198;SDS011;7700;48.654;9.070;2023-10-08T03:20:39;4.85;;;4.25;;
15198;SDS011;7700;48.654;9.070;2023-10-08T03:23:14;4.78;;;3.67;;
15198;SDS011;7700;48.654;9.070;2023-10-08T03:25:54;6.03;;;4.70;;
15198;SDS011;7700;48.654;9.070;2023-10-08T03:28:24;6.18;;;5.68;;
15198;SDS011;7700;48.654;9.070;2023-10-08T03:30:50;5.47;;;4.57;;
15198;SDS011;7700;48.654;9.070;2023-10-08T03:33:17;6.72;;;4.38;;
15198;SDS011;7700;48.654;9.070;2023-10-08T03:35:49;5.07;;;4.57;;
15198;SDS011;7700;48.654;9.070;2023-10-08T03:38:20;6.63;;;4.80;;
15198;SDS011;7700;48.654;9.070;2023-10-08T03:40:54;4.97;;;4.47;;
15198;SDS011;7700;48.654;9.070;2023-10-08T03:43:22;6.88;;;5.57;;
15198;SDS011;7700;48.654;9.070;2023-10-08T03:45:58;5.40;;;4.60;;
15198;SDS011;7700;48.654;9.070;2023-10-08T03:48:25;7.18;;;4.97;;
15198;SDS011;7700;48.654;9.070;2023-10-08T03:50:54;5.85;;;5.07;;
15198;SDS011;7700;48.654;9.070;2023-10-08T03:53:31;5.43;;;4.93;;
15198;SDS011;7700;48.654;9.070;2023-10-08T03:56:02;6.97;;;5.43;;
15198;SDS011;7700;48.654;9.070;2023-10-08T03:58:31;6.43;;;5.18;;
15198;SDS011;7700;48.654;9.070;2023-10-08T04:01:05;5.82;;;5.20;;
15198;SDS011;7700;48.654;9.070;2023-10-08T04:03:36;6.18;;;5.57;;
15198;SDS011;7700;48.654;9.070;2023-10-08T04:06:23;6.43;;;5.80;;
15198;SDS011;7700;48.654;9.070;2023-10-08T04:08:59;7.05;;;4.85;;
15198;SDS011;7700;48.654;9.070;2023-10-08T04:11:41;6.05;;;5.45;;
15198;SDS011;7700;48.654;9.070;2023-10-08T04:14:16;6.70;;;5.10;;
15198;SDS011;7700;48.654;9.070;2023-10-08T04:16:42;7.50;;;4.22;;
15198;SDS011;7700;48.654;9.070;2023-10-08T04:19:09;7.13;;;5.77;;
15198;SDS011;7700;48.654;9.070;2023-10-08T04:21:35;8.32;;;6.85;;
15198;SDS011;7700;48.654;9.070;2023-10-08T04:24:01;6.78;;;6.22;;
15198;SDS011;7700;48.654;9.070;2023-10-08T04:26:33;6.57;;;4.57;;
15198;SDS011;7700;48.654;9.070;2023-10-08T04:29:00;6.22;;;5.63;;
15198;SDS011;7700;48.654;9.070;2023-10-08T04:31:31;8.07;;;4.93;;
15198;SDS011;7700;48.654;9.070;2023-10-08T04:34:11;6.80;;;6.18;;
15198;SDS011;7700;48.654;9.070;2023-10-08T04:36:44;7.67;;;6.67;;
15198;SDS011;7700;48.654;9.070;2023-10-08T04:39:19;7.13;;;5.80;;
15198;SDS011;7700;48.654;9.070;2023-10-08T04:42:03;6.83;;;4.53;;
15198;SDS011;7700;48.654;9.070;2023-10-08T04:44:36;6.93;;;6.10;;
15198;SDS011;7700;48.654;9.070;2023-10-08T04:47:04;6.15;;;5.63;;
15198;SDS011;7700;48.654;9.070;2023-10-08T04:49:30;8.73;;;6.50;;
15198;SDS011;7700;48.654;9.070;2023-10-08T04:51:59;7.27;;;6.10;;
15198;SDS011;7700;48.654;9.070;2023-10-08T04:54:26;5.97;;;5.33;;
15198;SDS011;7700;48.654;9.070;2023-10-08T04:56:56;5.90;;;5.17;;
15198;SDS011;7700;48.654;9.070;2023-10-08T04:59:23;6.77;;;6.17;;
15198;SDS011;7700;48.654;9.070;2023-10-08T05:01:57;6.70;;;5.87;;
15198;SDS011;7700;48.654;9.070;2023-10-08T05:04:42;7.57;;;5.20;;
15198;SDS011;7700;48.654;9.070;2023-10-08T05:07:18;8.57;;;5.97;;
15198;SDS011;7700;48.654;9.070;2023-10-08T05:10:05;7.30;;;5.23;;
15198;SDS011;7700;48.654;9.070;2023-10-08T05:12:31;6.70;;;5.80;;
15198;SDS011;7700;48.654;9.070;2023-10-08T05:15:02;9.17;;;5.73;;
15198;SDS011;7700;48.654;9.070;2023-10-08T05:17:38;5.90;;;5.20;;
15198;SDS011;7700;48.654;9.070;2023-10-08T05:20:16;7.60;;;6.70;;
15198;SDS011;7700;48.654;9.070;2023-10-08T05:22:54;8.10;;;5.67;;
15198;SDS011;7700;48.654;9.070;2023-10-08T05:25:30;5.53;;;4.90;;
15198;SDS011;7700;48.654;9.070;2023-10-08T05:28:18;6.10;;;5.50;;
15198;SDS011;7700;48.654;9.070;2023-10-08T05:30:49;5.90;;;5.27;;
15198;SDS011;7700;48.654;9.070;2023-10-08T05:33:20;6.43;;;5.43;;
15198;SDS011;7700;48.654;9.070;2023-10-08T05:35:56;6.53;;;5.93;;
15198;SDS011;7700;48.654;9.070;2023-10-08T05:38:34;5.63;;;5.07;;
15198;SDS011;7700;48.654;9.070;2023-10-08T05:41:00;6.37;;;5.27;;
15198;SDS011;7700;48.654;9.070;2023-10-08T05:43:27;7.77;;;5.23;;
15198;SDS011;7700;48.654;9.070;2023-10-08T05:46:03;7.30;;;6.70;;
15198;SDS011;7700;48.654;9.070;2023-10-08T05:51:27;6.10;;;5.50;;
15198;SDS011;7700;48.654;9.070;2023-10-08T05:54:18;6.87;;;6.23;;
15198;SDS011;7700;48.654;9.070;2023-10-08T05:57:01;8.00;;;6.30;;
15198;SDS011;7700;48.654;9.070;2023-10-08T05:59:36;6.70;;;6.03;;
15198;SDS011;7700;48.654;9.070;2023-10-08T06:02:20;6.73;;;6.03;;
15198;SDS011;7700;48.654;9.070;2023-10-08T06:04:54;7.07;;;6.47;;
15198;SDS011;7700;48.654;9.070;2023-10-08T06:07:48;6.70;;;5.27;;
15198;SDS011;7700;48.654;9.070;2023-10-08T06:10:18;6.00;;;5.40;;
15198;SDS011;7700;48.654;9.070;2023-10-08T06:15:44;6.93;;;5.77;;
15198;SDS011;7700;48.654;9.070;2023-10-08T06:18:20;7.07;;;6.47;;
15198;SDS011;7700;48.654;9.070;2023-10-08T06:20:51;7.80;;;6.23;;
15198;SDS011;7700;48.654;9.070;2023-10-08T06:23:19;7.17;;;6.50;;
15198;SDS011;7700;48.654;9.070;2023-10-08T06:25:52;7.13;;;5.90;;
15198;SDS011;7700;48.654;9.070;2023-10-08T06:28:30;7.25;;;6.28;;
15198;SDS011;7700;48.654;9.070;2023-10-08T06:31:00;8.45;;;7.40;;
15198;SDS011;7700;48.654;9.070;2023-10-08T06:33:26;9.73;;;8.80;;
15198;SDS011;7700;48.654;9.070;2023-10-08T06:35:59;10.13;;;9.13;;
15198;SDS011;7700;48.654;9.070;2023-10-08T06:38:42;12.20;;;8.68;;
15198;SDS011;7700;48.654;9.070;2023-10-08T06:41:09;7.93;;;7.13;;
15198;SDS011;7700;48.654;9.070;2023-10-08T06:43:39;8.10;;;5.90;;
15198;SDS011;7700;48.654;9.070;2023-10-08T06:46:08;7.47;;;5.85;;
15198;SDS011;7700;48.654;9.070;2023-10-08T06:48:37;8.07;;;6.28;;
15198;SDS011;7700;48.654;9.070;2023-10-08T06:51:07;7.95;;;7.25;;
15198;SDS011;7700;48.654;9.070;2023-10-08T06:53:37;8.50;;;7.60;;
15198;SDS011;7700;48.654;9.070;2023-10-08T06:56:03;7.55;;;5.85;;
15198;SDS011;7700;48.654;9.070;2023-10-08T06:58:33;9.93;;;8.23;;
15198;SDS011;7700;48.654;9.070;2023-10-08T07:00:59;8.60;;;7.13;;
15198;SDS011;7700;48.654;9.070;2023-10-08T07:03:29;7.45;;;6.15;;
15198;SDS011;7700;48.654;9.070;2023-10-08T07:06:05;7.18;;;6.32;;
15198;SDS011;7700;48.654;9.070;2023-10-08T07:08:56;7.25;;;6.50;;
15198;SDS011;7700;48.654;9.070;2023-10-08T07:11:24;7.95;;;6.22;;
15198;SDS011;7700;48.654;9.070;2023-10-08T07:13:51;8.93;;;6.10;;
15198;SDS011;7700;48.654;9.070;2023-10-08T07:16:18;6.93;;;6.10;;
15198;SDS011;7700;48.654;9.070;2023-10-08T07:18:46;9.75;;;6.72;;
15198;SDS011;7700;48.654;9.070;2023-10-08T07:21:20;10.23;;;7.65;;
15198;SDS011;7700;48.654;9.070;2023-10-08T07:24:04;9.55;;;8.25;;
15198;SDS011;7700;48.654;9.070;2023-10-08T07:26:34;11.63;;;6.40;;
15198;SDS011;7700;48.654;9.070;2023-10-08T07:29:04;5.75;;;5.10;;
15198;SDS011;7700;48.654;9.070;2023-10-08T07:31:33;6.90;;;4.90;;
15198;SDS011;7700;48.654;9.070;2023-10-08T07:34:01;8.90;;;5.80;;
15198;SDS011;7700;48.654;9.070;2023-10-08T07:36:46;7.07;;;5.07;;
15198;SDS011;7700;48.654;9.070;2023-10-08T07:39:13;8.40;;;5.63;;
15198;SDS011;7700;48.654;9.070;2023-10-08T07:41:54;6.13;;;5.53;;
15198;SDS011;7700;48.654;9.070;2023-10-08T07:44:21;9.77;;;5.07;;
15198;SDS011;7700;48.654;9.070;2023-10-08T07:46:51;6.32;;;4.18;;
15198;SDS011;7700;48.654;9.070;2023-10-08T07:49:19;10.23;;;5.40;;
15198;SDS011;7700;48.654;9.070;2023-10-08T07:51:45;10.05;;;5.18;;
15198;SDS011;7700;48.654;9.070;2023-10-08T07:54:16;7.22;;;4.40;;
15198;SDS011;7700;48.654;9.070;2023-10-08T07:56:44;6.80;;;4.60;;
15198;SDS011;7700;48.654;9.070;2023-10-08T07:59:10;7.38;;;3.97;;
15198;SDS011;7700;48.654;9.070;2023-10-08T08:01:39;6.90;;;4.50;;
15198;SDS011;7700;48.654;9.070;2023-10-08T08:04:07;9.10;;;5.68;;
15198;SDS011;7700;48.654;9.070;2023-10-08T08:06:35;7.45;;;4.55;;
15198;SDS011;7700;48.654;9.070;2023-10-08T08:09:02;9.93;;;4.90;;
15198;SDS011;7700;48.654;9.070;2023-10-08T08:11:34;9.63;;;4.10;;
15198;SDS011;7700;48.654;9.070;2023-10-08T08:14:02;5.72;;;4.38;;
15198;SDS011;7700;48.654;9.070;2023-10-08T08:16:32;6.35;;;3.90;;
15198;SDS011;7700;48.654;9.070;2023-10-08T08:19:01;5.80;;;4.55;;
15198;SDS011;7700;48.654;9.070;2023-10-08T08:21:27;8.18;;;7.28;;
15198;SDS011;7700;48.654;9.070;2023-10-08T08:23:55;12.10;;;11.02;;
15198;SDS011;7700;48.654;9.070;2023-10-08T08:26:30;9.82;;;8.02;;
15198;SDS011;7700;48.654;9.070;2023-10-08T08:29:04;10.10;;;8.38;;
15198;SDS011;7700;48.654;9.070;2023-10-08T08:31:34;14.73;;;13.68;;
15198;SDS011;7700;48.654;9.070;2023-10-08T08:34:01;20.02;;;18.63;;
15198;SDS011;7700;48.654;9.070;2023-10-08T08:36:39;31.60;;;29.80;;
15198;SDS011;7700;48.654;9.070;2023-10-08T08:39:11;53.60;;;50.38;;
15198;SDS011;7700;48.654;9.070;2023-10-08T08:41:42;51.45;;;48.53;;
15198;SDS011;7700;48.654;9.070;2023-10-08T08:44:08;64.78;;;60.85;;
15198;SDS011;7700;48.654;9.070;2023-10-08T08:46:35;63.80;;;59.80;;
15198;SDS011;7700;48.654;9.070;2023-10-08T08:49:03;112.70;;;106.22;;
15198;SDS011;7700;48.654;9.070;2023-10-08T08:51:29;145.18;;;136.23;;
15198;SDS011;7700;48.654;9.070;2023-10-08T08:53:56;115.53;;;108.07;;
15198;SDS011;7700;48.654;9.070;2023-10-08T08:56:25;196.50;;;184.73;;
15198;SDS011;7700;48.654;9.070;2023-10-08T08:58:52;235.50;;;220.32;;
15198;SDS011;7700;48.654;9.070;2023-10-08T09:01:18;198.45;;;186.23;;
15198;SDS011;7700;48.654;9.070;2023-10-08T09:03:44;281.45;;;263.48;;
15198;SDS011;7700;48.654;9.070;2023-10-08T09:06:13;220.40;;;208.57;;
15198;SDS011;7700;48.654;9.070;2023-10-08T09:08:39;227.88;;;213.10;;
15198;SDS011;7700;48.654;9.070;2023-10-08T09:11:14;259.63;;;243.82;;
15198;SDS011;7700;48.654;9.070;2023-10-08T09:13:40;261.63;;;245.63;;
15198;SDS011;7700;48.654;9.070;2023-10-08T09:16:08;239.48;;;225.07;;
15198;SDS011;7700;48.654;9.070;2023-10-08T09:18:37;305.15;;;287.20;;
15198;SDS011;7700;48.654;9.070;2023-10-08T09:21:13;242.20;;;227.68;;
15198;SDS011;7700;48.654;9.070;2023-10-08T09:23:40;271.10;;;254.68;;
15198;SDS011;7700;48.654;9.070;2023-10-08T09:26:12;211.80;;;200.00;;
15198;SDS011;7700;48.654;9.070;2023-10-08T09:28:39;266.50;;;250.15;;
15198;SDS011;7700;48.654;9.070;2023-10-08T09:31:08;255.60;;;239.80;;
15198;SDS011;7700;48.654;9.070;2023-10-08T09:33:35;276.55;;;259.10;;
15198;SDS011;7700;48.654;9.070;2023-10-08T09:36:01;291.95;;;275.00;;
15198;SDS011;7700;48.654;9.070;2023-10-08T09:38:27;242.88;;;227.70;;
15198;SDS011;7700;48.654;9.070;2023-10-08T09:40:55;317.55;;;299.02;;
15198;SDS011;7700;48.654;9.070;2023-10-08T09:43:22;345.75;;;325.52;;
15198;SDS011;7700;48.654;9.070;2023-10-08T09:45:53;366.75;;;342.73;;
15198;SDS011;7700;48.654;9.070;2023-10-08T09:48:22;328.23;;;308.23;;
15198;SDS011;7700;48.654;9.070;2023-10-08T09:50:51;297.35;;;277.95;;
15198;SDS011;7700;48.654;9.070;2023-10-08T09:53:17;401.58;;;380.33;;
15198;SDS011;7700;48.654;9.070;2023-10-08T09:55:52;316.15;;;297.23;;
15198;SDS011;7700;48.654;9.070;2023-10-08T09:58:19;358.20;;;337.90;;
15198;SDS011;7700;48.654;9.070;2023-10-08T10:03:30;300.08;;;284.27;;
15198;SDS011;7700;48.654;9.070;2023-10-08T10:06:00;447.48;;;423.52;;
15198;SDS011;7700;48.654;9.070;2023-10-08T10:08:26;374.38;;;353.83;;
15198;SDS011;7700;48.654;9.070;2023-10-08T10:10:57;387.13;;;364.50;;
15198;SDS011;7700;48.654;9.070;2023-10-08T10:13:27;424.73;;;400.10;;
15198;SDS011;7700;48.654;9.070;2023-10-08T10:15:53;429.77;;;404.83;;
15198;SDS011;7700;48.654;9.070;2023-10-08T10:20:57;477.42;;;449.50;;
15198;SDS011;7700;48.654;9.070;2023-10-08T10:23:34;377.17;;;353.85;;
15198;SDS011;7700;48.654;9.070;2023-10-08T10:26:01;371.00;;;348.05;;
15198;SDS011;7700;48.654;9.070;2023-10-08T10:28:27;365.20;;;344.50;;
15198;SDS011;7700;48.654;9.070;2023-10-08T10:30:54;304.40;;;287.25;;
15198;SDS011;7700;48.654;9.070;2023-10-08T10:33:22;319.02;;;300.08;;
15198;SDS011;7700;48.654;9.070;2023-10-08T10:35:49;309.67;;;292.23;;
15198;SDS011;7700;48.654;9.070;2023-10-08T10:38:18;296.00;;;278.50;;
15198;SDS011;7700;48.654;9.070;2023-10-08T10:40:48;291.63;;;274.42;;
15198;SDS011;7700;48.654;9.070;2023-10-08T10:43:23;226.48;;;212.30;;
15198;SDS011;7700;48.654;9.070;2023-10-08T10:45:55;243.02;;;227.27;;
15198;SDS011;7700;48.654;9.070;2023-10-08T10:48:21;193.93;;;181.52;;
15198;SDS011;7700;48.654;9.070;2023-10-08T10:50:49;224.93;;;210.40;;
15198;SDS011;7700;48.654;9.070;2023-10-08T10:53:38;199.02;;;186.20;;
15198;SDS011;7700;48.654;9.070;2023-10-08T10:56:13;248.05;;;231.63;;
15198;SDS011;7700;48.654;9.070;2023-10-08T10:58:52;237.57;;;221.73;;
15198;SDS011;7700;48.654;9.070;2023-10-08T11:01:22;195.30;;;181.35;;
15198;SDS011;7700;48.654;9.070;2023-10-08T11:03:51;247.27;;;231.15;;
15198;SDS011;7700;48.654;9.070;2023-10-08T11:06:17;185.43;;;174.20;;
15198;SDS011;7700;48.654;9.070;2023-10-08T11:08:48;232.57;;;218.20;;
15198;SDS011;7700;48.654;9.070;2023-10-08T11:11:16;297.20;;;273.50;;
15198;SDS011;7700;48.654;9.070;2023-10-08T11:13:42;267.40;;;248.05;;
15198;SDS011;7700;48.654;9.070;2023-10-08T11:16:14;238.82;;;222.25;;
15198;SDS011;7700;48.654;9.070;2023-10-08T11:18:44;354.15;;;330.98;;
15198;SDS011;7700;48.654;9.070;2023-10-08T11:21:15;318.77;;;296.05;;
15198;SDS011;7700;48.654;9.070;2023-10-08T11:23:44;296.33;;;275.27;;
15198;SDS011;7700;48.654;9.070;2023-10-08T11:26:24;309.90;;;290.58;;
15198;SDS011;7700;48.654;9.070;2023-10-08T11:28:57;274.55;;;256.60;;
15198;SDS011;7700;48.654;9.070;2023-10-08T11:31:26;285.33;;;268.60;;
15198;SDS011;7700;48.654;9.070;2023-10-08T11:33:58;401.58;;;374.52;;
15198;SDS011;7700;48.654;9.070;2023-10-08T11:36:24;420.23;;;395.15;;
15198;SDS011;7700;48.654;9.070;2023-10-08T11:38:54;302.45;;;282.13;;
15198;SDS011;7700;48.654;9.070;2023-10-08T11:41:26;261.05;;;245.00;;
15198;SDS011;7700;48.654;9.070;2023-10-08T11:43:53;316.70;;;296.98;;
15198;SDS011;7700;48.654;9.070;2023-10-08T11:46:31;292.25;;;271.80;;
15198;SDS011;7700;48.654;9.070;2023-10-08T11:49:04;299.85;;;282.60;;
15198;SDS011;7700;48.654;9.070;2023-10-08T11:51:33;234.70;;;219.00;;
15198;SDS011;7700;48.654;9.070;2023-10-08T11:54:00;308.02;;;290.25;;
15198;SDS011;7700;48.654;9.070;2023-10-08T11:56:27;326.00;;;305.17;;
15198;SDS011;7700;48.654;9.070;2023-10-08T11:58:54;237.32;;;222.20;;
15198;SDS011;7700;48.654;9.070;2023-10-08T12:01:22;296.83;;;278.67;;
15198;SDS011;7700;48.654;9.070;2023-10-08T12:03:48;240.18;;;224.55;;
15198;SDS011;7700;48.654;9.070;2023-10-08T12:06:15;308.30;;;290.08;;
15198;SDS011;7700;48.654;9.070;2023-10-08T12:08:43;281.75;;;264.55;;
15198;SDS011;7700;48.654;9.070;2023-10-08T12:11:11;228.93;;;212.02;;
15198;SDS011;7700;48.654;9.070;2023-10-08T12:13:38;335.75;;;315.80;;
15198;SDS011;7700;48.654;9.070;2023-10-08T12:16:08;443.73;;;417.40;;
15198;SDS011;7700;48.654;9.070;2023-10-08T12:18:37;427.73;;;403.00;;
15198;SDS011;7700;48.654;9.070;2023-10-08T12:21:08;360.60;;;335.88;;
15198;SDS011;7700;48.654;9.070;2023-10-08T12:23:40;527.83;;;494.88;;
15198;SDS011;7700;48.654;9.070;2023-10-08T12:26:08;408.40;;;381.00;;
15198;SDS011;7700;48.654;9.070;2023-10-08T12:28:34;477.85;;;448.02;;
15198;SDS011;7700;48.654;9.070;2023-10-08T12:31:01;551.75;;;515.13;;
15198;SDS011;7700;48.654;9.070;2023-10-08T12:33:29;586.05;;;548.35;;
15198;SDS011;7700;48.654;9.070;2023-10-08T12:35:56;589.28;;;552.83;;
15198;SDS011;7700;48.654;9.070;2023-10-08T12:38:23;625.45;;;586.60;;
15198;SDS011;7700;48.654;9.070;2023-10-08T12:40:52;689.55;;;643.60;;
15198;SDS011;7700;48.654;9.070;2023-10-08T12:43:22;755.20;;;704.72;;
15198;SDS011;7700;48.654;9.070;2023-10-08T12:45:52;693.67;;;645.08;;
15198;SDS011;7700;48.654;9.070;2023-10-08T12:48:24;708.92;;;661.65;;
15198;SDS011;7700;48.654;9.070;2023-10-08T12:50:54;750.50;;;698.95;;
15198;SDS011;7700;48.654;9.070;2023-10-08T12:53:27;736.30;;;684.25;;
15198;SDS011;7700;48.654;9.070;2023-10-08T12:56:02;750.35;;;696.97;;
15198;SDS011;7700;48.654;9.070;2023-10-08T12:58:31;771.72;;;715.67;;
15198;SDS011;7700;48.654;9.070;2023-10-08T13:00:59;832.28;;;769.65;;
15198;SDS011;7700;48.654;9.070;2023-10-08T13:03:29;774.53;;;720.47;;
15198;SDS011;7700;48.654;9.070;2023-10-08T13:05:58;769.22;;;713.88;;
15198;SDS011;7700;48.654;9.070;2023-10-08T13:08:30;761.95;;;705.60;;
15198;SDS011;7700;48.654;9.070;2023-10-08T13:10:59;757.10;;;696.67;;
15198;SDS011;7700;48.654;9.070;2023-10-08T13:13:35;764.63;;;706.35;;
15198;SDS011;7700;48.654;9.070;2023-10-08T13:16:02;757.35;;;699.40;;
15198;SDS011;7700;48.654;9.070;2023-10-08T13:18:32;772.28;;;713.08;;
15198;SDS011;7700;48.654;9.070;2023-10-08T13:20:58;782.95;;;724.08;;
15198;SDS011;7700;48.654;9.070;2023-10-08T13:23:25;785.55;;;727.75;;
15198;SDS011;7700;48.654;9.070;2023-10-08T13:25:51;802.10;;;741.70;;
15198;SDS011;7700;48.654;9.070;2023-10-08T13:28:23;793.40;;;735.35;;
15198;SDS011;7700;48.654;9.070;2023-10-08T13:30:53;793.45;;;736.50;;
15198;SDS011;7700;48.654;9.070;2023-10-08T13:33:22;781.00;;;722.40;;
15198;SDS011;7700;48.654;9.070;2023-10-08T13:35:48;756.45;;;702.80;;
15198;SDS011;7700;48.654;9.070;2023-10-08T13:38:15;779.40;;;723.00;;
15198;SDS011;7700;48.654;9.070;2023-10-08T13:40:42;779.30;;;719.80;;
15198;SDS011;7700;48.654;9.070;2023-10-08T13:43:27;751.80;;;696.53;;
15198;SDS011;7700;48.654;9.070;2023-10-08T13:45:58;794.60;;;735.20;;
15198;SDS011;7700;48.654;9.070;2023-10-08T13:48:28;782.05;;;725.75;;
15198;SDS011;7700;48.654;9.070;2023-10-08T13:50:55;778.47;;;723.53;;
15198;SDS011;7700;48.654;9.070;2023-10-08T13:53:21;803.38;;;746.33;;
15198;SDS011;7700;48.654;9.070;2023-10-08T13:55:47;803.58;;;746.47;;
15198;SDS011;7700;48.654;9.070;2023-10-08T13:58:13;818.58;;;762.22;;
15198;SDS011;7700;48.654;9.070;2023-10-08T14:00:39;817.75;;;759.60;;
15198;SDS011;7700;48.654;9.070;2023-10-08T14:03:05;783.50;;;725.35;;
15198;SDS011;7700;48.654;9.070;2023-10-08T14:05:33;837.50;;;780.35;;
15198;SDS011;7700;48.654;9.070;2023-10-08T14:07:59;800.00;;;743.28;;
15198;SDS011;7700;48.654;9.070;2023-10-08T14:10:27;908.72;;;837.22;;
15198;SDS011;7700;48.654;9.070;2023-10-08T14:12:54;899.50;;;826.20;;
15198;SDS011;7700;48.654;9.070;2023-10-08T14:15:20;842.67;;;776.58;;
15198;SDS011;7700;48.654;9.070;2023-10-08T14:17:48;823.13;;;759.97;;
15198;SDS011;7700;48.654;9.070;2023-10-08T14:20:14;841.40;;;775.20;;
15198;SDS011;7700;48.654;9.070;2023-10-08T14:22:46;837.03;;;768.80;;
15198;SDS011;7700;48.654;9.070;2023-10-08T14:25:17;834.85;;;767.15;;
15198;SDS011;7700;48.654;9.070;2023-10-08T14:27:49;847.92;;;779.65;;
15198;SDS011;7700;48.654;9.070;2023-10-08T14:30:17;852.28;;;783.28;;
15198;SDS011;7700;48.654;9.070;2023-10-08T14:32:46;864.72;;;797.28;;
15198;SDS011;7700;48.654;9.070;2023-10-08T14:35:13;904.63;;;838.33;;
15198;SDS011;7700;48.654;9.070;2023-10-08T14:37:59;821.90;;;757.30;;
15198;SDS011;7700;48.654;9.070;2023-10-08T14:40:44;812.40;;;749.00;;
15198;SDS011;7700;48.654;9.070;2023-10-08T14:43:28;837.13;;;773.50;;
15198;SDS011;7700;48.654;9.070;2023-10-08T14:45:59;827.20;;;762.92;;
15198;SDS011;7700;48.654;9.070;2023-10-08T14:48:29;862.42;;;798.25;;
15198;SDS011;7700;48.654;9.070;2023-10-08T14:50:55;841.33;;;777.85;;
15198;SDS011;7700;48.654;9.070;2023-10-08T14:53:21;837.60;;;774.03;;
15198;SDS011;7700;48.654;9.070;2023-10-08T14:55:49;844.40;;;778.22;;
15198;SDS011;7700;48.654;9.070;2023-10-08T14:58:16;876.15;;;809.25;;
15198;SDS011;7700;48.654;9.070;2023-10-08T15:00:46;874.30;;;807.83;;
15198;SDS011;7700;48.654;9.070;2023-10-08T15:03:13;876.58;;;809.55;;